Time;durP1;ratioP1;P1;durP2;ratioP2;P2;SDS_P1;SDS_P2;PMS_P1;PMS_P2;Temp;Humidity;BMP_temperature;BMP_pressure;BME280_temperature;BME280_humidity;BME280_pressure;Samples;Min_cycle;Max_cycle;Signal;HPM_P1;HPM_P2
2023/03/19 00:00:35;;;;;;;14.93;10.05;;;;;;;11.38;100.00;100063.22;4968117;28;20047;-86
2023/03/19 00:03:02;;;;;;;15.80;10.32;;;;;;;11.23;100.00;100038.41;4965218;28;20031;-87
2023/03/19 00:05:34;;;;;;;15.50;10.73;;;;;;;11.34;100.00;100051.06;4968082;28;20035;-86
2023/03/19 00:08:02;;;;;;;17.65;10.57;;;;;;;11.41;100.00;100057.75;4969135;28;20035;-85
2023/03/19 00:10:30;;;;;;;16.40;10.60;;;;;;;11.31;100.00;100030.06;4953692;28;20043;-87
2023/03/19 00:12:58;;;;;;;17.63;11.52;;;;;;;11.39;100.00;100038.44;4970681;28;20054;-84
2023/03/19 00:15:26;;;;;;;19.75;11.27;;;;;;;11.54;100.00;100061.44;4966851;28;20039;-85
2023/03/19 00:17:55;;;;;;;18.45;11.07;;;;;;;11.57;100.00;100061.25;4971182;28;20066;-88
2023/03/19 00:20:26;;;;;;;18.05;11.25;;;;;;;11.55;100.00;100065.78;4958310;28;20046;-90
2023/03/19 00:22:54;;;;;;;16.42;10.63;;;;;;;11.52;100.00;100065.09;4971270;28;20095;-85
2023/03/19 00:25:24;;;;;;;19.42;11.20;;;;;;;11.49;100.00;100070.59;4950193;28;20084;-87
2023/03/19 00:27:53;;;;;;;17.58;10.68;;;;;;;11.39;100.00;100050.81;4948934;28;20060;-87
2023/03/19 00:30:28;;;;;;;20.25;11.13;;;;;;;11.11;100.00;100009.09;4986350;28;20038;-87
2023/03/19 00:32:55;;;;;;;18.17;11.13;;;;;;;11.31;100.00;100053.06;4987916;28;20034;-86
2023/03/19 00:35:22;;;;;;;18.35;13.00;;;;;;;11.30;100.00;100067.25;4996238;28;20049;-86
2023/03/19 00:37:51;;;;;;;17.52;12.30;;;;;;;11.23;100.00;100074.66;4993012;28;20062;-89
2023/03/19 00:40:18;;;;;;;19.25;11.38;;;;;;;11.15;100.00;100077.75;4985699;28;20048;-85
2023/03/19 00:42:49;;;;;;;20.35;11.30;;;;;;;11.09;100.00;100071.91;4992625;28;20039;-86
2023/03/19 00:45:20;;;;;;;15.85;10.70;;;;;;;11.05;100.00;100078.31;4967436;28;20047;-88
2023/03/19 00:47:49;;;;;;;17.95;10.50;;;;;;;11.02;100.00;100076.69;4976851;28;20114;-86
2023/03/19 00:50:16;;;;;;;17.63;9.98;;;;;;;10.98;100.00;100075.16;4992713;28;20153;-84
2023/03/19 00:52:47;;;;;;;16.70;9.80;;;;;;;11.00;100.00;100083.88;4990569;28;20038;-88
2023/03/19 00:55:14;;;;;;;16.00;10.63;;;;;;;10.94;100.00;100078.03;4991205;28;20050;-90
2023/03/19 00:57:42;;;;;;;19.38;9.90;;;;;;;10.90;100.00;100075.56;4985623;28;20057;-91
2023/03/19 01:00:15;;;;;;;14.90;9.38;;;;;;;10.70;100.00;100038.69;4985247;28;20034;-85
2023/03/19 01:02:40;;;;;;;15.65;9.52;;;;;;;10.90;100.00;100080.84;4987116;28;20039;-85
2023/03/19 01:05:12;;;;;;;17.77;11.18;;;;;;;10.80;100.00;100055.81;4989034;28;20059;-87
2023/03/19 01:07:40;;;;;;;16.55;10.52;;;;;;;10.97;100.00;100077.88;4991617;28;20051;-86
2023/03/19 01:10:09;;;;;;;19.55;10.30;;;;;;;10.83;100.00;100060.09;4993326;28;20042;-86
2023/03/19 01:12:35;;;;;;;18.13;9.88;;;;;;;10.92;100.00;100075.47;4947012;28;20047;-90
2023/03/19 01:15:04;;;;;;;17.65;10.05;;;;;;;10.93;100.00;100073.69;4975475;28;20035;-93
2023/03/19 01:17:33;;;;;;;16.53;9.97;;;;;;;10.90;100.00;100083.50;4973625;28;20067;-90
2023/03/19 01:20:14;;;;;;;15.38;10.10;;;;;;;10.84;100.00;100083.84;4976822;28;20030;-90
2023/03/19 01:22:44;;;;;;;16.17;10.20;;;;;;;10.87;100.00;100090.75;4977700;28;20047;-90
2023/03/19 01:25:12;;;;;;;22.70;12.82;;;;;;;10.84;100.00;100086.50;4972058;28;20137;-89
2023/03/19 01:27:40;;;;;;;21.38;11.30;;;;;;;10.92;100.00;100090.50;4976627;28;20047;-88
2023/03/19 01:30:09;;;;;;;17.67;10.63;;;;;;;10.90;100.00;100099.41;4972768;28;20047;-91
2023/03/19 01:32:36;;;;;;;20.92;10.80;;;;;;;10.83;100.00;100084.78;4979051;28;20075;-89
2023/03/19 01:35:07;;;;;;;15.60;10.70;;;;;;;10.94;100.00;100092.16;4980246;28;20050;-89
2023/03/19 01:37:34;;;;;;;18.73;10.82;;;;;;;10.89;100.00;100096.81;4960633;28;20341;-89
2023/03/19 01:40:05;;;;;;;18.27;10.30;;;;;;;10.65;100.00;100055.75;4976927;28;20106;-92
2023/03/19 01:42:32;;;;;;;15.48;9.93;;;;;;;10.67;100.00;100054.75;4959611;28;20066;-89
2023/03/19 01:45:03;;;;;;;16.58;10.18;;;;;;;10.44;100.00;100018.00;4978590;28;20042;-90
2023/03/19 01:47:36;;;;;;;16.58;9.70;;;;;;;10.59;100.00;100043.69;4978219;28;20042;-91
2023/03/19 01:50:05;;;;;;;14.00;9.75;;;;;;;10.61;100.00;100049.75;4983075;28;20074;-90
2023/03/19 01:52:35;;;;;;;16.27;9.90;;;;;;;10.70;100.00;100066.97;4983123;28;20031;-87
2023/03/19 01:55:04;;;;;;;16.02;9.60;;;;;;;10.66;100.00;100068.91;4982572;28;20054;-86
2023/03/19 01:57:31;;;;;;;16.63;9.52;;;;;;;10.52;100.00;100055.53;4978569;28;20074;-88
2023/03/19 02:00:06;;;;;;;19.05;10.07;;;;;;;10.41;100.00;100040.19;4963781;28;20085;-91
2023/03/19 02:02:37;;;;;;;16.02;9.00;;;;;;;10.06;100.00;99978.50;4987692;28;20038;-89
2023/03/19 02:05:13;;;;;;;17.30;9.18;;;;;;;10.69;100.00;100081.16;4967770;28;20066;-91
2023/03/19 02:07:43;;;;;;;14.35;8.73;;;;;;;10.17;100.00;99993.81;4981846;28;20035;-88
2023/03/19 02:10:17;;;;;;;13.30;8.15;;;;;;;10.16;100.00;99987.66;4981233;28;20098;-93
2023/03/19 02:12:47;;;;;;;;;;;;;;;10.71;100.00;100088.03;4974804;28;20047;-94
2023/03/19 02:15:17;;;;;;;13.73;8.80;;;;;;;10.36;100.00;100017.56;4980590;28;19918;-92
2023/03/19 02:17:52;;;;;;;15.82;8.27;;;;;;;10.74;100.00;100090.53;4976567;28;20067;-92
2023/03/19 02:20:27;;;;;;;17.30;8.35;;;;;;;10.15;100.00;99980.66;4982124;28;20065;-87
2023/03/19 02:23:06;;;;;;;15.77;9.48;;;;;;;10.43;100.00;100026.88;4978982;28;20613;-88
2023/03/19 02:25:54;;;;;;;15.45;8.57;;;;;;;10.72;100.00;100078.31;4978154;28;20055;-93
2023/03/19 02:28:22;;;;;;;13.68;8.35;;;;;;;10.67;100.00;100069.78;4980121;28;20062;-90
2023/03/19 02:30:52;;;;;;;12.25;8.52;;;;;;;10.67;100.00;100078.56;4979357;28;20069;-89
2023/03/19 02:33:19;;;;;;;14.13;9.63;;;;;;;10.72;100.00;100080.97;4985951;28;20059;-85
2023/03/19 02:35:53;;;;;;;13.57;8.50;;;;;;;10.63;100.00;100060.28;4978736;28;20135;-92
2023/03/19 02:38:25;;;;;;;15.60;9.25;;;;;;;10.57;100.00;100053.50;4983193;28;20146;-93
2023/03/19 02:40:56;;;;;;;15.75;9.30;;;;;;;10.62;100.00;100077.09;4982046;28;20112;-89
2023/03/19 02:43:36;;;;;;;15.95;9.85;;;;;;;10.59;100.00;100083.41;4974235;28;20069;-88
2023/03/19 02:46:08;;;;;;;15.82;9.90;;;;;;;10.18;100.00;100028.16;4979718;28;20039;-94
2023/03/19 02:48:38;;;;;;;16.92;9.85;;;;;;;10.34;100.00;100062.63;4982359;28;20049;-86
2023/03/19 02:51:05;;;;;;;16.77;9.82;;;;;;;10.49;100.00;100092.75;5001591;28;20047;-89
2023/03/19 02:53:33;;;;;;;16.25;9.50;;;;;;;10.24;100.00;100057.88;4981710;28;20082;-90
2023/03/19 02:56:01;;;;;;;13.63;8.90;;;;;;;10.08;100.00;100031.31;4960186;28;20119;-91
2023/03/19 02:58:31;;;;;;;15.18;9.63;;;;;;;10.30;100.00;100073.44;4977528;28;20046;-90
2023/03/19 03:00:59;;;;;;;14.35;8.63;;;;;;;10.29;100.00;100074.38;4977606;28;20050;-93
2023/03/19 03:03:26;;;;;;;11.90;8.52;;;;;;;10.29;100.00;100071.75;4961304;28;20043;-91
2023/03/19 03:05:54;;;;;;;15.05;9.05;;;;;;;10.40;100.00;100087.91;4980641;28;20042;-88
2023/03/19 03:08:21;;;;;;;14.52;9.00;;;;;;;10.08;100.00;100033.94;4987246;28;20057;-89
2023/03/19 03:10:50;;;;;;;14.35;8.55;;;;;;;10.41;100.00;100090.50;4975328;28;20042;-87
2023/03/19 03:13:20;;;;;;;14.57;8.90;;;;;;;10.41;100.00;100092.28;4968081;28;20055;-91
2023/03/19 03:15:48;;;;;;;15.52;9.23;;;;;;;10.39;100.00;100092.34;4979780;28;20043;-89
2023/03/19 03:18:16;;;;;;;12.57;8.52;;;;;;;10.02;100.00;100034.28;4992799;28;20042;-92
2023/03/19 03:20:46;;;;;;;12.50;7.95;;;;;;;10.19;100.00;100066.94;4978062;28;20121;-93
2023/03/19 03:23:14;;;;;;;14.18;8.73;;;;;;;10.08;100.00;100050.69;4991155;28;20110;-86
2023/03/19 03:25:41;;;;;;;15.20;8.85;;;;;;;9.84;100.00;100015.75;4981662;28;20047;-87
2023/03/19 03:28:11;;;;;;;14.77;9.05;;;;;;;9.74;100.00;100001.28;4986797;28;20062;-89
2023/03/19 03:30:38;;;;;;;16.08;9.05;;;;;;;10.03;100.00;100055.38;4984675;28;20035;-89
2023/03/19 03:33:08;;;;;;;15.25;8.50;;;;;;;10.28;100.00;100107.06;4984989;28;20051;-87
2023/03/19 03:35:36;;;;;;;14.80;8.77;;;;;;;10.08;100.00;100074.50;4963144;28;20039;-86
2023/03/19 03:38:03;;;;;;;13.65;8.50;;;;;;;10.23;100.00;100101.19;4990279;28;20038;-87
2023/03/19 03:40:44;;;;;;;13.98;8.80;;;;;;;10.03;100.00;100071.25;4982731;28;20085;-87
2023/03/19 03:43:18;;;;;;;15.20;9.02;;;;;;;10.16;100.00;100100.59;4981488;28;20638;-90
2023/03/19 03:45:46;;;;;;;12.05;8.23;;;;;;;9.91;100.00;100056.00;4986634;28;20131;-90
2023/03/19 03:48:15;;;;;;;11.88;7.90;;;;;;;10.03;100.00;100081.81;4977197;28;20054;-91
2023/03/19 03:50:43;;;;;;;11.23;8.18;;;;;;;9.95;100.00;100081.31;4971830;28;20058;-93
2023/03/19 03:53:11;;;;;;;12.00;8.10;;;;;;;9.45;100.00;100018.53;4976596;28;20055;-90
2023/03/19 03:55:38;;;;;;;12.27;7.82;;;;;;;9.99;100.00;100116.44;4977379;28;20094;-94
2023/03/19 03:58:07;;;;;;;12.02;8.52;;;;;;;9.61;100.00;100054.81;4981784;28;20134;-89
2023/03/19 04:00:36;;;;;;;14.27;8.82;;;;;;;9.41;100.00;100024.06;4979640;28;20050;-90
2023/03/19 04:03:03;;;;;;;11.18;8.10;;;;;;;9.64;100.00;100058.16;4976536;28;20047;-94
2023/03/19 04:05:36;;;;;;;13.32;8.65;;;;;;;9.96;100.00;100098.06;4971725;28;20074;-91
2023/03/19 04:08:10;;;;;;;12.45;8.32;;;;;;;10.06;100.00;100092.25;4978817;28;20053;-93
2023/03/19 04:10:41;;;;;;;12.50;8.18;;;;;;;10.07;100.00;100098.41;4978422;28;20132;-93
2023/03/19 04:13:10;;;;;;;14.65;8.45;;;;;;;10.10;100.00;100098.22;4970686;28;20043;-90
2023/03/19 04:15:41;;;;;;;13.77;9.25;;;;;;;10.27;100.00;100124.75;4970086;28;20051;-90
2023/03/19 04:18:09;;;;;;;15.07;8.27;;;;;;;10.03;100.00;100070.38;4952941;28;20141;-91
2023/03/19 04:20:42;;;;;;;13.75;8.40;;;;;;;9.79;100.00;100016.91;4969546;28;20129;-92
2023/03/19 04:23:11;;;;;;;14.55;8.65;;;;;;;10.41;100.00;100122.25;4970301;28;20051;-90
2023/03/19 04:25:40;;;;;;;11.35;8.15;;;;;;;9.91;100.00;100036.63;4972631;28;20619;-92
2023/03/19 04:28:09;;;;;;;12.63;8.02;;;;;;;10.58;100.00;100133.78;4982248;28;20114;-85
2023/03/19 04:30:36;;;;;;;11.70;7.90;;;;;;;10.35;100.00;100105.84;4972534;28;20043;-87
2023/03/19 04:33:05;;;;;;;12.75;7.90;;;;;;;10.53;100.00;100126.09;4986705;28;20033;-88
2023/03/19 04:35:33;;;;;;;12.07;7.20;;;;;;;10.57;100.00;100148.81;4979826;28;20050;-93
2023/03/19 04:38:14;;;;;;;14.02;7.47;;;;;;;10.36;100.00;100111.06;4964674;28;20657;-91
2023/03/19 04:40:41;;;;;;;11.98;7.05;;;;;;;10.53;100.00;100141.97;4981594;28;20080;-88
2023/03/19 04:43:10;;;;;;;11.95;7.75;;;;;;;10.48;100.00;100141.34;4983866;28;20058;-89
2023/03/19 04:45:39;;;;;;;12.10;7.80;;;;;;;10.39;100.00;100123.28;4981763;28;20046;-92
2023/03/19 04:48:12;;;;;;;11.52;7.10;;;;;;;10.55;100.00;100150.69;4981178;28;20066;-88
2023/03/19 04:50:40;;;;;;;12.40;8.15;;;;;;;10.34;100.00;100128.81;4989427;28;20055;-86
2023/03/19 04:53:08;;;;;;;11.45;7.78;;;;;;;10.46;100.00;100159.09;4993641;28;20027;-86
2023/03/19 04:55:36;;;;;;;14.32;7.97;;;;;;;10.41;100.00;100150.50;4988534;28;20034;-89
2023/03/19 04:58:17;;;;;;;12.35;8.57;;;;;;;10.38;100.00;100156.00;4991687;28;20085;-90
2023/03/19 05:00:46;;;;;;;15.57;7.85;;;;;;;10.14;100.00;100120.97;4961546;28;21154;-89
2023/03/19 05:03:16;;;;;;;11.43;7.68;;;;;;;10.26;100.00;100138.03;4991481;28;20800;-88
2023/03/19 05:05:43;;;;;;;13.93;8.27;;;;;;;10.29;100.00;100153.78;4991552;28;20045;-93
2023/03/19 05:08:12;;;;;;;10.07;7.30;;;;;;;10.17;100.00;100134.03;4972405;28;20043;-93
2023/03/19 05:10:39;;;;;;;10.38;7.43;;;;;;;9.81;100.00;100060.00;4979811;28;20047;-94
2023/03/19 05:13:07;;;;;;;10.00;7.47;;;;;;;10.03;100.00;100105.63;4976451;28;20089;-90
2023/03/19 05:15:34;;;;;;;11.35;7.55;;;;;;;10.14;100.00;100127.13;4975708;28;20043;-92
2023/03/19 05:18:02;;;;;;;11.77;7.45;;;;;;;10.18;100.00;100135.75;4978676;28;20050;-89
2023/03/19 05:20:34;;;;;;;12.68;7.82;;;;;;;10.34;100.00;100165.00;4978718;28;20046;-90
2023/03/19 05:23:02;;;;;;;13.30;7.25;;;;;;;10.17;100.00;100140.19;4969863;28;20042;-91
2023/03/19 05:25:31;;;;;;;11.02;7.38;;;;;;;10.14;100.00;100140.34;4969691;28;20069;-86
2023/03/19 05:27:58;;;;;;;11.70;7.50;;;;;;;10.26;100.00;100160.06;4986465;28;20024;-84
2023/03/19 05:30:26;;;;;;;12.43;7.75;;;;;;;9.73;100.00;100070.97;4952515;28;20062;-88
2023/03/19 05:32:55;;;;;;;10.70;7.32;;;;;;;10.26;100.00;100169.81;4971461;28;20086;-85
2023/03/19 05:35:28;;;;;;;13.40;7.95;;;;;;;9.71;100.00;100093.97;4986184;28;20038;-85
2023/03/19 05:38:02;;;;;;;12.57;8.10;;;;;;;9.81;100.00;100126.09;4989167;28;20073;-88
2023/03/19 05:40:33;;;;;;;14.48;7.97;;;;;;;10.04;100.00;100186.72;4982282;28;20046;-86
2023/03/19 05:43:06;;;;;;;11.68;8.10;;;;;;;10.05;100.00;100198.16;4983256;28;20047;-90
2023/03/19 05:45:37;;;;;;;13.57;8.23;;;;;;;9.83;100.00;100166.56;4958629;28;20107;-88
2023/03/19 05:48:07;;;;;;;13.52;7.57;;;;;;;9.57;100.00;100130.78;4969362;28;20074;-89
2023/03/19 05:50:34;;;;;;;12.18;7.88;;;;;;;9.63;100.00;100143.69;4971850;28;20027;-89
2023/03/19 05:53:02;;;;;;;11.93;7.70;;;;;;;9.60;100.00;100143.00;4965400;28;20043;-92
2023/03/19 05:55:32;;;;;;;11.63;7.95;;;;;;;9.65;100.00;100144.50;4961692;28;20059;-92
2023/03/19 05:58:05;;;;;;;12.25;7.80;;;;;;;9.72;100.00;100147.72;4979602;28;20097;-91
2023/03/19 06:00:35;;;;;;;12.93;8.50;;;;;;;10.08;100.00;100206.78;4944451;28;20046;-89
2023/03/19 06:03:03;;;;;;;13.05;7.90;;;;;;;9.43;100.00;100105.00;5221290;23;20051;-89
2023/03/19 06:05:30;;;;;;;13.77;8.57;;;;;;;9.66;100.00;100156.78;4979545;28;20066;-90
2023/03/19 06:07:57;;;;;;;13.40;8.57;;;;;;;9.75;100.00;100182.81;4987514;28;20050;-93
2023/03/19 06:10:25;;;;;;;12.18;8.38;;;;;;;9.94;100.00;100209.22;4980992;28;20542;-91
2023/03/19 06:12:54;;;;;;;13.60;8.73;;;;;;;9.66;100.00;100187.66;4959798;28;20135;-91
2023/03/19 06:15:23;;;;;;;15.38;8.68;;;;;;;9.90;100.00;100225.34;4980573;28;20436;-91
2023/03/19 06:18:03;;;;;;;22.25;8.40;;;;;;;9.65;100.00;100191.22;4986864;28;20133;-85
2023/03/19 06:20:32;;;;;;;14.93;9.00;;;;;;;9.63;100.00;100177.22;4992014;28;20103;-87
2023/03/19 06:23:01;;;;;;;14.85;8.57;;;;;;;9.63;100.00;100178.06;4990864;28;20097;-87
2023/03/19 06:25:28;;;;;;;11.60;8.15;;;;;;;10.02;100.00;100228.25;4992711;28;20043;-89
2023/03/19 06:27:57;;;;;;;9.90;7.47;;;;;;;10.08;100.00;100225.28;4994749;28;20297;-88
2023/03/19 06:30:24;;;;;;;11.10;7.70;;;;;;;9.76;100.00;100157.19;4947529;28;20027;-87
2023/03/19 06:32:51;;;;;;;10.05;7.38;;;;;;;10.35;100.00;100231.09;4958173;28;20110;-89
2023/03/19 06:35:19;;;;;;;13.13;8.35;;;;;;;10.38;100.00;100232.75;4985816;28;20472;-92
2023/03/19 06:37:47;;;;;;;13.20;8.27;;;;;;;10.49;100.00;100238.38;4966999;28;20043;-92
2023/03/19 06:40:14;;;;;;;10.00;7.53;;;;;;;10.58;100.00;100232.59;4981526;28;20066;-92
2023/03/19 06:42:46;;;;;;;12.85;7.97;;;;;;;10.47;100.00;100214.63;4980250;28;20057;-92
2023/03/19 06:45:18;;;;;;;13.05;7.97;;;;;;;10.41;100.00;100192.88;4986282;28;20047;-93
2023/03/19 06:47:52;;;;;;;13.25;8.48;;;;;;;10.47;100.00;100203.16;4971009;28;20058;-92
2023/03/19 06:50:19;;;;;;;13.25;8.32;;;;;;;10.52;100.00;100204.66;4951259;28;20046;-92
2023/03/19 06:52:49;;;;;;;12.80;8.25;;;;;;;10.64;100.00;100213.78;4979021;28;20067;-88
2023/03/19 06:55:26;;;;;;;9.80;7.70;;;;;;;10.82;100.00;100228.75;4983144;28;20042;-85
2023/03/19 06:57:56;;;;;;;11.10;8.32;;;;;;;10.96;100.00;100236.00;4975347;28;20042;-92
2023/03/19 07:00:30;;;;;;;13.77;8.48;;;;;;;10.92;100.00;100239.72;4983538;28;20053;-91
2023/03/19 07:02:59;;;;;;;11.00;7.95;;;;;;;11.05;100.00;100247.91;4967805;28;20120;-88
2023/03/19 07:05:29;;;;;;;14.13;8.35;;;;;;;10.94;99.19;100219.31;4963974;28;20043;-90
2023/03/19 07:07:59;;;;;;;12.50;7.95;;;;;;;10.99;98.48;100214.66;4960262;28;20038;-87
2023/03/19 07:10:28;;;;;;;14.63;8.27;;;;;;;11.14;97.42;100250.09;4972234;28;20031;-88
2023/03/19 07:13:05;;;;;;;17.27;8.25;;;;;;;10.99;98.22;100251.75;4973729;28;20047;-86
2023/03/19 07:15:32;;;;;;;12.35;7.90;;;;;;;10.97;99.87;100258.03;4973531;28;20133;-87
2023/03/19 07:18:02;;;;;;;11.75;7.90;;;;;;;10.99;99.54;100237.63;4978687;28;20034;-88
2023/03/19 07:20:33;;;;;;;13.05;8.52;;;;;;;10.73;98.42;100184.16;4975229;28;20099;-86
2023/03/19 07:23:03;;;;;;;14.18;7.68;;;;;;;11.15;97.51;100230.59;4958991;28;20039;-89
2023/03/19 07:25:34;;;;;;;12.27;8.27;;;;;;;10.84;96.40;100160.66;4962910;28;20150;-93
2023/03/19 07:28:02;;;;;;;11.25;7.82;;;;;;;11.40;96.02;100246.94;4979967;28;20051;-89
2023/03/19 07:30:30;;;;;;;10.60;7.97;;;;;;;11.40;96.38;100232.81;4970516;28;20125;-89
2023/03/19 07:32:59;;;;;;;11.77;8.40;;;;;;;11.14;94.74;100171.44;4984014;28;20035;-89
2023/03/19 07:35:26;;;;;;;13.70;8.60;;;;;;;11.53;93.74;100226.78;4969325;28;20066;-85
2023/03/19 07:37:53;;;;;;;14.60;7.93;;;;;;;11.68;92.70;100243.66;4967063;28;20027;-85
2023/03/19 07:40:20;;;;;;;11.13;8.38;;;;;;;11.81;92.81;100259.78;4969533;28;20055;-90
2023/03/19 07:43:00;;;;;;;9.25;7.35;;;;;;;11.47;92.78;100199.75;4973716;28;20043;-85
2023/03/19 07:45:31;;;;;;;10.20;7.78;;;;;;;12.11;91.41;100271.41;4985932;28;20040;-86
2023/03/19 07:48:02;;;;;;;13.68;7.22;;;;;;;11.94;88.74;100211.31;4971089;28;20043;-88
2023/03/19 07:50:32;;;;;;;12.32;7.45;;;;;;;12.40;86.63;100260.97;4979004;28;20057;-88
2023/03/19 07:53:02;;;;;;;10.45;6.65;;;;;;;12.41;85.41;100244.09;4967366;28;20083;-87
2023/03/19 07:55:36;;;;;;;13.15;7.20;;;;;;;12.63;84.11;100273.78;4965382;28;20055;-87
2023/03/19 07:58:06;;;;;;;9.80;6.80;;;;;;;12.58;85.25;100278.53;4985280;28;20138;-91
2023/03/19 08:00:37;;;;;;;12.50;6.78;;;;;;;12.45;85.25;100256.22;4963207;28;20090;-92
2023/03/19 08:03:09;;;;;;;10.57;6.40;;;;;;;12.24;84.81;100223.81;4948661;28;20047;-90
2023/03/19 08:05:54;;;;;;;11.20;6.82;;;;;;;12.48;85.99;100269.34;5059436;23;20093;-93
2023/03/19 08:08:26;;;;;;;10.10;7.00;;;;;;;12.36;87.31;100254.97;4989626;28;20070;-91
2023/03/19 08:10:55;;;;;;;10.55;7.68;;;;;;;12.45;87.31;100282.78;4981416;28;20102;-92
2023/03/19 08:13:25;;;;;;;13.00;6.97;;;;;;;12.36;87.72;100285.97;4979532;28;20051;-91
2023/03/19 08:15:56;;;;;;;11.43;6.93;;;;;;;12.30;88.64;100263.25;4984537;28;20043;-90
2023/03/19 08:18:28;;;;;;;10.68;7.50;;;;;;;12.40;88.36;100283.06;4986598;28;20061;-89
2023/03/19 08:20:56;;;;;;;12.55;7.72;;;;;;;12.19;88.70;100287.75;4985718;28;20043;-92
2023/03/19 08:23:26;;;;;;;11.68;7.03;;;;;;;12.27;89.88;100290.00;4982801;28;20054;-91
2023/03/19 08:25:58;;;;;;;9.18;7.03;;;;;;;12.05;88.72;100233.72;4981059;28;20075;-91
2023/03/19 08:28:34;;;;;;;10.38;6.70;;;;;;;12.32;87.99;100263.19;4981101;28;20039;-92
2023/03/19 08:31:14;;;;;;;11.30;6.82;;;;;;;12.24;87.83;100253.88;4980784;28;20039;-92
2023/03/19 08:34:03;;;;;;;10.02;6.75;;;;;;;12.40;87.19;100245.03;4987172;28;20047;-93
2023/03/19 08:36:33;;;;;;;8.98;6.82;;;;;;;12.23;86.37;100195.53;4976716;28;20054;-92
2023/03/19 08:39:21;;;;;;;7.88;6.07;;;;;;;12.86;84.00;100260.03;4977901;28;20042;-93
2023/03/19 08:42:30;;;;;;;9.45;6.75;;;;;;;12.78;81.13;100241.00;4981716;28;20049;-92
2023/03/19 08:45:08;;;;;;;9.18;6.70;;;;;;;12.71;83.86;100282.19;4977396;28;20327;-92
2023/03/19 08:47:39;;;;;;;8.15;6.18;;;;;;;12.72;84.17;100283.03;4978007;28;20110;-91
2023/03/19 08:50:09;;;;;;;12.52;6.97;;;;;;;12.91;84.00;100296.94;4985331;28;20043;-90
2023/03/19 08:52:57;;;;;;;13.82;6.72;;;;;;;13.02;85.22;100299.88;4990499;28;20081;-91
2023/03/19 08:55:26;;;;;;;11.57;6.95;;;;;;;12.41;84.40;100213.09;4979505;28;20057;-90
2023/03/19 08:57:53;;;;;;;11.48;6.00;;;;;;;13.04;85.45;100295.31;4978221;28;20071;-90
2023/03/19 09:00:26;;;;;;;11.85;7.65;;;;;;;13.23;82.77;100303.06;4976489;28;20074;-91
2023/03/19 09:02:55;;;;;;;8.93;6.68;;;;;;;12.88;84.79;100252.81;4972634;28;20142;-90
2023/03/19 09:05:23;;;;;;;11.05;6.90;;;;;;;13.06;84.70;100272.16;4977465;28;20055;-90
2023/03/19 09:08:07;;;;;;;9.05;6.72;;;;;;;13.46;83.16;100307.88;4979808;28;20060;-91
2023/03/19 09:10:38;;;;;;;7.93;6.10;;;;;;;13.00;81.17;100203.41;4983947;28;20050;-92
2023/03/19 09:13:05;;;;;;;10.02;6.25;;;;;;;13.03;81.31;100208.53;4981915;28;20071;-90
2023/03/19 09:15:36;;;;;;;8.05;6.07;;;;;;;13.62;81.38;100294.50;4972191;28;20073;-88
2023/03/19 09:18:22;;;;;;;7.85;5.80;;;;;;;13.38;78.37;100225.03;4968709;28;20422;-91
2023/03/19 09:21:09;;;;;;;9.25;5.75;;;;;;;14.14;77.01;100309.91;4986821;28;20039;-88
2023/03/19 09:23:46;;;;;;;6.78;5.43;;;;;;;14.04;74.61;100256.38;4975526;28;20043;-91
2023/03/19 09:26:15;;;;;;;7.07;5.47;;;;;;;14.55;73.78;100305.50;4974489;28;20047;-90
2023/03/19 09:29:03;;;;;;;6.40;4.97;;;;;;;14.51;72.72;100301.31;4982310;28;20042;-91
2023/03/19 09:31:40;;;;;;;8.25;5.50;;;;;;;14.31;73.55;100297.25;4969536;28;20054;-93
2023/03/19 09:34:18;;;;;;;7.13;4.88;;;;;;;13.68;75.33;100233.81;4987910;28;20122;-90
2023/03/19 09:36:48;;;;;;;8.88;5.15;;;;;;;13.81;75.11;100246.34;4989596;28;20047;-91
2023/03/19 09:39:27;;;;;;;7.45;4.63;;;;;;;14.15;76.29;100283.19;4990319;28;20058;-87
2023/03/19 09:42:41;;;;;;;9.77;4.72;;;;;;;14.34;74.36;100301.50;4990471;28;20038;-88
2023/03/19 09:45:22;;;;;;;7.60;5.03;;;;;;;14.04;75.98;100256.38;4987150;28;20051;-90
2023/03/19 09:48:03;;;;;;;6.63;4.40;;;;;;;14.13;74.96;100261.13;4988189;28;20039;-90
2023/03/19 09:50:36;;;;;;;6.68;4.43;;;;;;;14.25;75.21;100264.81;4984259;28;20114;-94
2023/03/19 09:54:04;;;;;;;8.30;4.30;;;;;;;14.29;73.76;100261.84;4984292;28;20103;-91
2023/03/19 09:56:34;;;;;;;5.70;3.60;;;;;;;14.30;73.46;100279.56;4922852;28;20039;-92
2023/03/19 09:59:04;;;;;;;;;;;;;;;14.65;73.01;100300.41;4983801;28;20058;-90
2023/03/19 10:01:36;;;;;;;5.88;4.03;;;;;;;14.91;73.61;100302.22;4981778;28;19909;-93
2023/03/19 10:04:31;;;;;;;6.75;3.97;;;;;;;15.03;70.20;100271.22;4982986;28;20028;-90
2023/03/19 10:07:12;;;;;;;7.75;3.88;;;;;;;15.35;67.70;100299.25;4987543;28;20162;-90
2023/03/19 10:10:01;;;;;;;6.30;4.07;;;;;;;14.96;67.43;100286.75;4984870;28;20102;-90
2023/03/19 10:12:53;;;;;;;8.40;4.10;;;;;;;14.95;70.29;100295.72;4987413;28;20043;-90
2023/03/19 10:15:36;;;;;;;5.60;3.97;;;;;;;14.78;71.04;100256.03;4991886;28;20074;-91
2023/03/19 10:18:20;;;;;;;7.72;4.50;;;;;;;14.79;70.48;100281.72;4969194;28;20047;-92
2023/03/19 10:21:12;;;;;;;9.23;4.60;;;;;;;14.97;70.82;100301.81;4986814;28;20058;-89
2023/03/19 10:24:04;;;;;;;6.63;4.05;;;;;;;15.16;69.80;100295.25;4986477;28;22042;-89
2023/03/19 10:26:34;;;;;;;6.63;4.18;;;;;;;15.15;69.92;100277.53;4979541;28;20051;-91
2023/03/19 10:29:08;;;;;;;5.75;3.97;;;;;;;15.21;69.07;100283.31;4978252;28;20038;-93
2023/03/19 10:31:54;;;;;;;7.38;4.00;;;;;;;15.22;68.57;100295.69;4983060;28;20483;-91
2023/03/19 10:34:34;;;;;;;5.15;3.75;;;;;;;15.07;69.44;100281.59;4976519;28;20150;-93
2023/03/19 10:37:19;;;;;;;10.00;4.35;;;;;;;15.10;69.67;100269.88;4981657;28;20082;-93
2023/03/19 10:40:13;;;;;;;6.22;4.22;;;;;;;14.98;68.69;100198.66;4973678;28;20043;-93
2023/03/19 10:43:16;;;;;;;6.22;4.18;;;;;;;15.62;65.86;100299.19;4983158;28;20070;-93
2023/03/19 10:45:47;;;;;;;8.63;4.43;;;;;;;15.45;65.79;100248.75;4978004;28;20123;-92
2023/03/19 10:48:25;;;;;;;5.93;4.32;;;;;;;15.63;65.32;100242.16;4953464;28;20117;-89
2023/03/19 10:51:05;;;;;;;10.40;5.13;;;;;;;15.96;65.28;100296.81;4972723;28;20142;-91
2023/03/19 10:53:47;;;;;;;7.47;4.50;;;;;;;15.85;64.87;100262.03;4978256;28;20046;-89
2023/03/19 10:56:22;;;;;;;6.65;4.60;;;;;;;15.64;64.28;100254.56;4998138;28;20061;-88
2023/03/19 10:59:04;;;;;;;9.23;4.85;;;;;;;15.62;66.13;100247.59;4984533;28;20039;-92
2023/03/19 11:01:38;;;;;;;8.95;4.45;;;;;;;15.45;66.66;100236.25;4981174;28;20071;-92
2023/03/19 11:04:20;;;;;;;8.90;5.22;;;;;;;16.06;67.10;100304.06;4974690;28;20360;-89
2023/03/19 11:07:08;;;;;;;8.98;4.20;;;;;;;15.67;66.46;100262.34;4977857;28;20086;-93
2023/03/19 11:09:49;;;;;;;6.60;3.97;;;;;;;15.48;68.17;100253.88;4973936;28;20058;-91
2023/03/19 11:12:37;;;;;;;8.77;4.68;;;;;;;15.56;68.01;100299.63;4977021;28;20039;-90
2023/03/19 11:15:22;;;;;;;6.90;4.15;;;;;;;15.51;68.90;100292.84;4974362;28;20054;-92
2023/03/19 11:18:06;;;;;;;4.70;3.80;;;;;;;15.48;68.31;100271.72;4977282;28;20035;-93
2023/03/19 11:20:36;;;;;;;8.13;4.43;;;;;;;15.75;66.92;100294.69;4982715;28;20043;-90
2023/03/19 11:23:16;;;;;;;5.88;3.97;;;;;;;15.67;67.56;100273.03;4982392;28;20099;-91
2023/03/19 11:25:57;;;;;;;5.93;3.42;;;;;;;15.87;63.07;100270.78;4983485;28;20053;-90
2023/03/19 11:28:32;;;;;;;3.83;2.67;;;;;;;16.21;61.97;100286.13;4988522;28;20098;-87
2023/03/19 11:31:54;;;;;;;4.55;3.50;;;;;;;16.21;62.79;100232.69;4992577;28;20031;-90
2023/03/19 11:35:03;;;;;;;5.43;3.90;;;;;;;16.46;63.89;100253.09;5004497;28;20049;-90
2023/03/19 11:38:02;;;;;;;6.63;4.30;;;;;;;16.65;63.86;100296.25;4987735;28;20042;-91
2023/03/19 11:40:56;;;;;;;8.17;4.33;;;;;;;16.36;63.72;100290.34;5138985;23;20099;-91